createdAt,value
2024-05-09T00:01:48.095Z,91.13
2024-05-09T00:04:18.187Z,90.60
2024-05-09T00:06:48.173Z,90.11
2024-05-09T00:09:18.087Z,89.94
2024-05-09T00:11:48.281Z,91.41
2024-05-09T00:14:18.395Z,91.49
2024-05-09T00:16:49.539Z,91.20
2024-05-09T00:19:19.774Z,90.90
2024-05-09T00:21:49.836Z,91.44
2024-05-09T00:24:19.453Z,91.44
2024-05-09T00:26:49.757Z,90.76
2024-05-09T00:29:20.170Z,92.37
2024-05-09T00:31:50.305Z,90.89
2024-05-09T00:34:20.356Z,90.41
2024-05-09T00:36:50.982Z,90.68
2024-05-09T00:39:21.110Z,90.33
2024-05-09T00:41:51.194Z,90.63
2024-05-09T00:44:21.254Z,90.45
2024-05-09T00:46:52.873Z,89.15
2024-05-09T00:49:23.995Z,90.26
2024-05-09T00:51:57.056Z,90.88
2024-05-09T00:54:27.885Z,91.76
2024-05-09T00:56:58.081Z,91.87
2024-05-09T00:59:30.368Z,91.87
2024-05-09T01:02:01.478Z,91.87
2024-05-09T01:04:31.526Z,91.60
2024-05-09T01:07:02.079Z,91.60
2024-05-09T01:09:32.097Z,91.81
2024-05-09T01:12:02.312Z,89.89
2024-05-09T01:14:32.465Z,90.32
2024-05-09T01:17:02.552Z,92.70
2024-05-09T01:19:33.951Z,92.95
2024-05-09T01:22:07.634Z,92.95
2024-05-09T01:24:37.790Z,92.61
2024-05-09T01:27:07.943Z,92.41
2024-05-09T01:29:42.830Z,91.78
2024-05-09T01:32:13.573Z,90.73
2024-05-09T01:34:44.112Z,89.93
2024-05-09T01:37:15.412Z,90.15
2024-05-09T01:39:46.131Z,91.92
2024-05-09T01:42:17.324Z,91.78
2024-05-09T01:44:47.941Z,92.02
2024-05-09T01:47:18.239Z,90.68
2024-05-09T01:49:48.747Z,89.38
2024-05-09T01:52:19.164Z,91.00
2024-05-09T01:54:49.410Z,91.10
2024-05-09T01:57:19.343Z,91.07
2024-05-09T01:59:49.594Z,90.93
2024-05-09T02:02:19.518Z,91.36
2024-05-09T02:04:50.645Z,91.20
2024-05-09T02:07:23.870Z,90.66
2024-05-09T02:09:55.255Z,91.36
2024-05-09T02:12:26.926Z,91.67
2024-05-09T02:14:57.674Z,90.23
2024-05-09T02:17:29.986Z,89.03
2024-05-09T02:20:06.039Z,90.69
2024-05-09T02:22:38.788Z,92.12
2024-05-09T02:25:09.269Z,91.93
2024-05-09T02:27:44.002Z,92.09
2024-05-09T02:30:29.934Z,90.82
2024-05-09T02:32:56.227Z,89.79
2024-05-09T02:35:26.976Z,89.79
2024-05-09T02:38:01.076Z,88.76
2024-05-09T02:40:36.970Z,90.80
2024-05-09T02:43:04.671Z,90.97
2024-05-09T02:45:42.042Z,91.64
2024-05-09T02:48:13.628Z,91.67
2024-05-09T02:50:44.900Z,89.98
2024-05-09T02:53:15.960Z,88.81
2024-05-09T02:55:49.103Z,88.47
2024-05-09T02:58:19.384Z,89.02
2024-05-09T03:00:53.372Z,91.26
2024-05-09T03:03:28.779Z,91.82
2024-05-09T03:05:59.150Z,93.08
2024-05-09T03:08:29.677Z,92.80
2024-05-09T03:11:00.227Z,93.52
2024-05-09T03:13:30.851Z,92.64
2024-05-09T03:16:01.883Z,92.13
2024-05-09T03:18:34.516Z,92.64
2024-05-09T03:21:04.860Z,92.73
2024-05-09T03:23:36.728Z,92.36
2024-05-09T03:26:13.257Z,92.25
2024-05-09T03:28:45.378Z,92.05
2024-05-09T03:31:18.520Z,91.01
2024-05-09T03:33:48.784Z,90.92
2024-05-09T03:36:19.090Z,90.41
2024-05-09T03:38:51.419Z,90.71
2024-05-09T03:41:21.666Z,91.88
2024-05-09T03:43:52.086Z,91.93
2024-05-09T03:46:23.798Z,91.04
2024-05-09T03:48:54.117Z,91.19
2024-05-09T03:51:24.687Z,92.04
2024-05-09T03:53:55.250Z,90.90
2024-05-09T03:56:27.417Z,90.75
2024-05-09T03:59:00.240Z,91.09
2024-05-09T04:01:32.249Z,91.24
2024-05-09T04:04:03.376Z,90.61
2024-05-09T04:06:33.528Z,91.07
2024-05-09T04:09:05.095Z,91.82
2024-05-09T04:11:41.043Z,92.22
2024-05-09T04:14:16.294Z,90.63
2024-05-09T04:16:48.202Z,90.36
2024-05-09T04:19:24.977Z,91.10
2024-05-09T04:21:55.233Z,90.78
2024-05-09T04:24:27.083Z,91.26
2024-05-09T04:26:57.596Z,92.13
2024-05-09T04:29:29.794Z,92.36
2024-05-09T04:31:59.868Z,91.99
2024-05-09T04:34:34.026Z,91.17
2024-05-09T04:37:05.183Z,91.50
2024-05-09T04:39:35.733Z,90.85
2024-05-09T04:42:11.463Z,90.80
2024-05-09T04:44:44.263Z,89.70
2024-05-09T04:47:15.084Z,88.90
2024-05-09T04:49:46.839Z,88.83
2024-05-09T04:52:17.269Z,89.73
2024-05-09T04:54:47.852Z,90.08
2024-05-09T04:57:18.623Z,90.46
2024-05-09T04:59:52.422Z,90.80
2024-05-09T05:02:27.091Z,91.01
2024-05-09T05:04:59.433Z,90.30
2024-05-09T05:07:31.727Z,90.71
2024-05-09T05:10:03.280Z,90.04
2024-05-09T05:12:52.048Z,89.81
2024-05-09T05:15:23.793Z,89.96
2024-05-09T05:17:54.375Z,90.18
2024-05-09T05:20:33.041Z,89.92
2024-05-09T05:22:56.289Z,89.92
2024-05-09T05:25:26.358Z,92.06
2024-05-09T05:27:56.847Z,90.95
2024-05-09T05:30:32.499Z,91.51
2024-05-09T05:33:00.617Z,90.88
2024-05-09T05:35:35.656Z,90.63
2024-05-09T05:38:09.198Z,90.63
2024-05-09T05:40:42.991Z,90.23
2024-05-09T05:43:23.332Z,89.78
2024-05-09T05:48:22.112Z,87.90
2024-05-09T05:50:52.688Z,88.90
2024-05-09T05:53:24.292Z,89.64
2024-05-09T05:55:54.761Z,89.56
2024-05-09T05:58:26.646Z,88.16
2024-05-09T06:00:56.913Z,87.43
2024-05-09T06:03:31.788Z,88.68
2024-05-09T06:06:04.363Z,87.61
2024-05-09T06:08:34.843Z,87.27
2024-05-09T06:11:05.486Z,86.68
2024-05-09T06:13:35.598Z,86.68
2024-05-09T06:16:07.452Z,86.98
2024-05-09T06:18:37.705Z,87.16
2024-05-09T06:21:08.707Z,87.16
2024-05-09T06:23:51.198Z,85.13
2024-05-09T06:26:21.567Z,85.27
2024-05-09T06:28:57.513Z,85.27
2024-05-09T06:31:27.653Z,85.62
2024-05-09T06:33:58.818Z,84.38
2024-05-09T06:36:28.716Z,84.38
2024-05-09T06:38:58.919Z,84.50
2024-05-09T06:41:29.845Z,83.93
2024-05-09T06:44:00.366Z,84.79
2024-05-09T06:46:36.474Z,83.81
2024-05-09T06:49:08.937Z,82.79
2024-05-09T06:51:43.095Z,81.09
2024-05-09T06:54:13.522Z,81.51
2024-05-09T06:56:44.541Z,80.78
2024-05-09T06:59:16.266Z,80.78
2024-05-09T07:01:46.724Z,79.49
2024-05-09T07:04:17.140Z,79.45
2024-05-09T07:06:53.238Z,78.03
2024-05-09T07:09:23.528Z,78.71
2024-05-09T07:11:56.804Z,77.95
2024-05-09T07:14:27.213Z,75.30
2024-05-09T07:17:03.811Z,74.48
2024-05-09T07:19:37.219Z,72.58
2024-05-09T07:22:11.867Z,73.07
2024-05-09T07:24:42.344Z,72.15
2024-05-09T07:27:14.185Z,69.79
2024-05-09T07:29:47.416Z,69.24
2024-05-09T07:32:28.740Z,70.26
2024-05-09T07:34:55.294Z,66.72
2024-05-09T07:37:25.450Z,66.72
2024-05-09T07:39:58.171Z,63.25
2024-05-09T07:42:27.962Z,63.30
2024-05-09T07:45:14.857Z,66.00
2024-05-09T07:48:57.523Z,66.00
2024-05-09T07:52:00.963Z,64.33
2024-05-09T07:53:33.464Z,61.37
2024-05-09T07:55:09.780Z,62.46
2024-05-09T07:57:42.916Z,61.00
2024-05-09T08:00:20.238Z,60.15
2024-05-09T08:02:46.545Z,57.94
2024-05-09T08:05:16.889Z,58.08
2024-05-09T08:07:47.518Z,58.83
2024-05-09T08:10:22.231Z,56.97
2024-05-09T08:12:49.887Z,56.19
2024-05-09T08:15:20.210Z,52.68
2024-05-09T08:17:53.489Z,54.77
2024-05-09T08:20:30.955Z,54.30
2024-05-09T08:22:55.464Z,52.63
2024-05-09T08:25:25.718Z,52.27
2024-05-09T08:28:01.062Z,50.59
2024-05-09T08:30:37.181Z,52.96
2024-05-09T08:33:07.791Z,53.74
2024-05-09T08:35:38.611Z,48.65
2024-05-09T08:38:09.978Z,48.25
2024-05-09T08:40:40.228Z,48.25
2024-05-09T08:43:13.069Z,51.04
2024-05-09T08:45:45.292Z,51.04
2024-05-09T08:48:17.102Z,48.64
2024-05-09T08:50:48.536Z,46.09
2024-05-09T08:53:19.424Z,46.62
2024-05-09T08:55:52.023Z,46.62
2024-05-09T08:58:22.590Z,49.00
2024-05-09T09:00:53.561Z,49.00
2024-05-09T09:03:27.673Z,47.39
2024-05-09T09:06:06.285Z,48.01
2024-05-09T09:08:37.800Z,45.23
2024-05-09T09:11:08.490Z,46.12
2024-05-09T09:13:39.220Z,47.74
2024-05-09T09:16:12.866Z,47.74
2024-05-09T09:18:46.280Z,47.56
2024-05-09T09:21:16.454Z,45.90
2024-05-09T09:23:46.620Z,45.11
2024-05-09T09:26:19.741Z,46.18
2024-05-09T09:28:50.109Z,48.50
2024-05-09T09:31:20.924Z,47.28
2024-05-09T09:33:51.152Z,45.04
2024-05-09T09:36:21.609Z,44.09
2024-05-09T09:38:53.437Z,43.56
2024-05-09T09:41:26.713Z,45.06
2024-05-09T09:43:58.733Z,46.03
2024-05-09T09:46:30.237Z,47.57
2024-05-09T09:49:01.363Z,48.18
2024-05-09T09:51:33.507Z,48.50
2024-05-09T09:54:06.892Z,48.80
2024-05-09T09:56:39.619Z,48.82
2024-05-09T09:59:10.452Z,48.91
2024-05-09T10:01:41.017Z,47.78
2024-05-09T10:04:16.079Z,44.42
2024-05-09T10:06:52.165Z,44.42
2024-05-09T10:09:22.666Z,44.19
2024-05-09T10:11:59.726Z,42.98
2024-05-09T10:14:24.901Z,42.98
2024-05-09T10:16:58.105Z,43.85
2024-05-09T10:19:29.046Z,44.27
2024-05-09T10:22:06.136Z,44.14
2024-05-09T10:24:50.201Z,44.28
2024-05-09T10:27:30.879Z,43.98
2024-05-09T10:30:06.908Z,41.62
2024-05-09T10:32:42.706Z,42.81
2024-05-09T10:35:15.129Z,42.81
2024-05-09T10:37:47.389Z,41.87
2024-05-09T10:40:25.892Z,41.55
2024-05-09T10:42:51.033Z,43.00
2024-05-09T10:45:21.673Z,43.00
2024-05-09T10:47:52.255Z,43.06
2024-05-09T10:50:28.360Z,41.75
2024-05-09T10:52:55.007Z,43.87
2024-05-09T10:55:25.230Z,40.02
2024-05-09T10:57:55.496Z,40.02
2024-05-09T11:00:36.097Z,38.34
2024-05-09T11:03:04.257Z,42.27
2024-05-09T11:05:35.081Z,42.27
2024-05-09T11:08:06.862Z,42.53
2024-05-09T11:10:37.439Z,42.22
2024-05-09T11:13:07.940Z,41.25
2024-05-09T11:15:41.320Z,40.49
2024-05-09T11:18:15.464Z,40.02
2024-05-09T11:20:45.636Z,40.47
2024-05-09T11:23:15.999Z,39.74
2024-05-09T11:25:58.330Z,38.21
2024-05-09T11:28:29.243Z,39.00
2024-05-09T11:31:10.475Z,39.00
2024-05-09T11:33:43.200Z,36.61
2024-05-09T11:36:14.156Z,37.44
2024-05-09T11:38:44.263Z,39.04
2024-05-09T11:41:20.312Z,39.27
2024-05-09T11:43:50.620Z,40.07
2024-05-09T11:46:20.758Z,41.69
2024-05-09T11:48:51.101Z,40.85
2024-05-09T11:51:21.415Z,41.30
2024-05-09T11:53:51.477Z,41.90
2024-05-09T11:56:22.164Z,41.78
2024-05-09T11:58:52.165Z,41.75
2024-05-09T12:01:25.109Z,40.62
2024-05-09T12:03:55.216Z,39.43
2024-05-09T12:06:25.506Z,39.43
2024-05-09T12:08:56.506Z,39.46
2024-05-09T12:11:26.620Z,38.92
2024-05-09T12:13:56.302Z,39.04
2024-05-09T12:16:26.822Z,39.04
2024-05-09T12:18:57.131Z,38.24
2024-05-09T12:21:27.408Z,39.41
2024-05-09T12:23:57.989Z,38.63
2024-05-09T12:26:28.489Z,37.61
2024-05-09T12:28:58.414Z,37.22
2024-05-09T12:31:28.644Z,38.75
2024-05-09T12:34:00.120Z,38.72
2024-05-09T12:36:31.409Z,38.79
2024-05-09T12:39:01.550Z,39.15
2024-05-09T12:41:31.462Z,38.34
2024-05-09T12:44:01.481Z,37.79
2024-05-09T12:46:31.917Z,37.79
2024-05-09T12:49:02.068Z,38.22
2024-05-09T12:51:32.322Z,38.57
2024-05-09T12:54:02.319Z,39.02
2024-05-09T12:56:33.456Z,38.91
2024-05-09T12:59:03.487Z,37.46
2024-05-09T13:01:33.660Z,37.67
2024-05-09T13:04:03.481Z,38.13
2024-05-09T13:06:33.539Z,37.51
2024-05-09T13:09:03.844Z,37.41
2024-05-09T13:11:33.931Z,37.41
2024-05-09T13:14:05.353Z,36.92
2024-05-09T13:16:35.426Z,35.59
2024-05-09T13:19:05.558Z,36.10
2024-05-09T13:21:35.835Z,36.10
2024-05-09T13:24:08.386Z,35.93
2024-05-09T13:26:38.425Z,36.71
2024-05-09T13:29:08.315Z,36.66
2024-05-09T13:31:38.329Z,37.71
2024-05-09T13:34:09.736Z,38.68
2024-05-09T13:36:40.462Z,38.93
2024-05-09T13:39:10.817Z,38.93
2024-05-09T13:41:40.970Z,38.39
2024-05-09T13:44:11.642Z,38.42
2024-05-09T13:46:41.486Z,38.29
2024-05-09T13:49:13.323Z,38.29
2024-05-09T13:51:43.797Z,39.02
2024-05-09T13:54:13.839Z,38.94
2024-05-09T13:56:43.850Z,39.06
2024-05-09T13:59:13.958Z,40.01
2024-05-09T14:01:44.069Z,39.81
2024-05-09T14:04:14.432Z,39.72
2024-05-09T14:06:45.146Z,40.92
2024-05-09T14:09:15.325Z,41.30
2024-05-09T14:11:45.478Z,41.40
2024-05-09T14:14:15.400Z,40.76
2024-05-09T14:16:45.507Z,41.27
2024-05-09T14:19:15.652Z,41.04
2024-05-09T14:21:45.698Z,41.19
2024-05-09T14:24:15.493Z,41.19
2024-05-09T14:26:46.085Z,42.00
2024-05-09T14:29:16.086Z,42.05
2024-05-09T14:31:46.318Z,41.91
2024-05-09T14:34:16.021Z,41.04
2024-05-09T14:36:46.236Z,41.96
2024-05-09T14:39:16.399Z,41.88
2024-05-09T14:41:46.997Z,42.48
2024-05-09T14:44:17.139Z,42.63
2024-05-09T14:46:47.148Z,42.63
2024-05-09T14:49:17.122Z,42.02
2024-05-09T14:51:49.401Z,41.85
2024-05-09T14:54:19.051Z,42.46
2024-05-09T14:56:49.203Z,42.58
2024-05-09T14:59:19.578Z,42.59
2024-05-09T15:01:49.486Z,43.79
2024-05-09T15:04:19.747Z,43.37
2024-05-09T15:06:50.246Z,43.70
2024-05-09T15:09:20.302Z,43.60
2024-05-09T15:11:50.232Z,44.67
2024-05-09T15:14:20.282Z,43.88
2024-05-09T15:16:50.527Z,43.82
2024-05-09T15:19:20.628Z,44.73
2024-05-09T15:21:50.711Z,44.88
2024-05-09T15:24:20.762Z,44.75
2024-05-09T15:26:51.361Z,44.32
2024-05-09T15:29:21.416Z,44.89
2024-05-09T15:31:51.489Z,44.45
2024-05-09T15:34:21.461Z,44.13
2024-05-09T15:36:51.862Z,44.13
2024-05-09T15:39:23.417Z,44.51
2024-05-09T15:41:54.986Z,45.09
2024-05-09T15:44:26.636Z,44.50
2024-05-09T15:46:56.584Z,43.41
2024-05-09T15:49:26.674Z,43.48
2024-05-09T15:51:56.882Z,41.49
2024-05-09T15:54:27.514Z,40.46
2024-05-09T15:56:57.535Z,40.16
2024-05-09T15:59:27.499Z,40.73
2024-05-09T16:01:57.425Z,39.77
2024-05-09T16:04:27.738Z,38.42
2024-05-09T16:06:58.047Z,37.73
2024-05-09T16:09:28.036Z,37.81
2024-05-09T16:11:57.764Z,38.01
2024-05-09T16:14:27.562Z,37.36
2024-05-09T16:16:57.556Z,38.78
2024-05-09T16:19:27.560Z,37.25
2024-05-09T16:21:58.171Z,36.69
2024-05-09T16:24:27.928Z,36.69
2024-05-09T16:26:58.150Z,36.81
2024-05-09T16:29:28.073Z,36.51
2024-05-09T16:31:58.008Z,37.25
2024-05-09T16:34:29.465Z,37.57
2024-05-09T16:37:00.182Z,36.95
2024-05-09T16:39:30.175Z,36.82
2024-05-09T16:41:59.914Z,35.96
2024-05-09T16:44:31.016Z,35.96
2024-05-09T16:47:01.225Z,36.75
2024-05-09T16:49:31.215Z,36.73
2024-05-09T16:52:00.934Z,36.97
2024-05-09T16:54:30.828Z,36.54
2024-05-09T16:57:00.820Z,36.59
2024-05-09T16:59:31.014Z,38.05
2024-05-09T17:02:03.594Z,38.68
2024-05-09T17:04:33.820Z,38.43
2024-05-09T17:07:03.940Z,38.84
2024-05-09T17:09:33.547Z,39.79
2024-05-09T17:12:03.313Z,40.76
2024-05-09T17:14:33.293Z,40.76
2024-05-09T17:17:03.705Z,40.27
2024-05-09T17:19:33.687Z,40.52
2024-05-09T17:22:03.692Z,41.27
2024-05-09T17:24:33.623Z,41.27
2024-05-09T17:27:03.700Z,43.08
2024-05-09T17:29:33.791Z,42.42
2024-05-09T17:32:03.797Z,41.65
2024-05-09T17:34:33.654Z,36.73
2024-05-09T17:37:03.850Z,36.73
2024-05-09T17:39:34.124Z,36.42
2024-05-09T17:42:04.029Z,36.15
2024-05-09T17:44:33.923Z,34.38
2024-05-09T17:47:04.673Z,33.00
2024-05-09T17:49:34.676Z,32.37
2024-05-09T17:52:07.809Z,32.03
2024-05-09T17:54:38.130Z,31.69
2024-05-09T17:57:09.479Z,35.14
2024-05-09T17:59:39.749Z,36.50
2024-05-09T18:02:11.816Z,39.70
2024-05-09T18:04:41.635Z,42.05
2024-05-09T18:07:12.032Z,42.05
2024-05-09T18:09:44.116Z,43.36
2024-05-09T18:12:15.808Z,44.80
2024-05-09T18:14:45.674Z,45.22
2024-05-09T18:17:15.676Z,45.97
2024-05-09T18:19:46.115Z,46.77
2024-05-09T18:22:16.256Z,46.66
2024-05-09T18:24:46.614Z,46.50
2024-05-09T18:27:16.871Z,47.10
2024-05-09T18:29:46.830Z,47.38
2024-05-09T18:32:16.913Z,47.67
2024-05-09T18:34:46.952Z,47.86
2024-05-09T18:37:17.192Z,48.67
2024-05-09T18:39:47.375Z,49.11
2024-05-09T18:42:16.951Z,49.30
2024-05-09T18:44:47.014Z,49.30
2024-05-09T18:47:20.105Z,49.50
2024-05-09T18:49:49.170Z,50.25
2024-05-09T18:52:18.850Z,50.70
2024-05-09T18:54:48.877Z,50.23
2024-05-09T18:57:18.545Z,50.99
2024-05-09T18:59:48.461Z,52.13
2024-05-09T19:02:18.586Z,52.96
2024-05-09T19:04:49.583Z,53.12
2024-05-09T19:07:19.871Z,53.16
2024-05-09T19:09:50.050Z,53.91
2024-05-09T19:12:19.703Z,54.62
2024-05-09T19:14:49.592Z,55.66
2024-05-09T19:17:19.626Z,56.41
2024-05-09T19:19:51.577Z,56.15
2024-05-09T19:22:21.472Z,56.06
2024-05-09T19:24:51.798Z,56.06
2024-05-09T19:27:21.803Z,55.90
2024-05-09T19:29:53.400Z,56.20
2024-05-09T19:32:23.094Z,56.85
2024-05-09T19:34:52.930Z,57.72
2024-05-09T19:37:22.926Z,58.05
2024-05-09T19:39:52.872Z,58.33
2024-05-09T19:42:22.844Z,58.99
2024-05-09T19:44:52.771Z,59.59
2024-05-09T19:47:22.857Z,59.63
2024-05-09T19:49:53.096Z,60.13
2024-05-09T19:52:23.132Z,61.68
2024-05-09T19:54:53.062Z,61.13
2024-05-09T19:57:23.010Z,60.96
2024-05-09T19:59:52.912Z,61.79
2024-05-09T20:02:23.047Z,61.01
2024-05-09T20:04:53.480Z,62.73
2024-05-09T20:07:23.418Z,62.63
2024-05-09T20:09:53.301Z,62.29
2024-05-09T20:12:23.263Z,62.22
2024-05-09T20:14:52.898Z,61.71
2024-05-09T20:17:22.781Z,63.34
2024-05-09T20:19:52.936Z,62.48
2024-05-09T20:22:22.691Z,63.90
2024-05-09T20:24:52.681Z,64.27
2024-05-09T20:27:22.582Z,64.27
2024-05-09T20:29:52.594Z,63.79
2024-05-09T20:32:22.658Z,64.39
2024-05-09T20:34:52.637Z,64.33
2024-05-09T20:37:22.976Z,63.91
2024-05-09T20:39:52.914Z,63.91
2024-05-09T20:42:22.864Z,64.04
2024-05-09T20:44:53.083Z,63.77
2024-05-09T20:47:23.015Z,63.51
2024-05-09T20:49:53.064Z,63.75
2024-05-09T20:52:22.884Z,63.91
2024-05-09T20:54:53.062Z,63.29
2024-05-09T20:57:23.157Z,63.39
2024-05-09T20:59:53.338Z,63.24
2024-05-09T21:02:23.391Z,64.19
2024-05-09T21:04:53.693Z,64.33
2024-05-09T21:07:23.772Z,64.23
2024-05-09T21:09:53.812Z,64.63
2024-05-09T21:12:23.376Z,64.34
2024-05-09T21:14:53.275Z,64.59
2024-05-09T21:17:23.395Z,64.75
2024-05-09T21:19:53.609Z,64.83
2024-05-09T21:22:23.233Z,64.38
2024-05-09T21:24:52.883Z,65.33
2024-05-09T21:27:24.390Z,64.45
2024-05-09T21:29:54.237Z,65.76
2024-05-09T21:32:24.209Z,65.76
2024-05-09T21:34:54.598Z,65.95
2024-05-09T21:37:24.621Z,66.56
2024-05-09T21:39:54.819Z,66.56
2024-05-09T21:42:24.818Z,66.27
2024-05-09T21:44:55.064Z,66.89
2024-05-09T21:47:25.261Z,66.30
2024-05-09T21:49:55.398Z,66.65
2024-05-09T21:52:25.427Z,67.04
2024-05-09T21:54:55.617Z,68.63
2024-05-09T21:57:25.385Z,68.63
2024-05-09T21:59:55.385Z,67.41
2024-05-09T22:02:25.651Z,67.41
2024-05-09T22:04:55.951Z,68.49
2024-05-09T22:07:26.311Z,68.49
2024-05-09T22:09:56.261Z,67.58
2024-05-09T22:12:25.861Z,67.58
2024-05-09T22:14:55.864Z,67.55
2024-05-09T22:17:25.892Z,67.58
2024-05-09T22:19:55.882Z,67.52
2024-05-09T22:22:26.738Z,67.01
2024-05-09T22:24:57.116Z,66.82
2024-05-09T22:27:27.207Z,67.90
2024-05-09T22:29:57.177Z,67.88
2024-05-09T22:32:27.216Z,67.09
2024-05-09T22:34:57.228Z,68.40
2024-05-09T22:37:27.196Z,68.40
2024-05-09T22:39:57.411Z,68.47
2024-05-09T22:42:28.388Z,68.47
2024-05-09T22:44:58.360Z,69.04
2024-05-09T22:47:28.289Z,69.04
2024-05-09T22:49:58.457Z,68.83
2024-05-09T22:52:28.402Z,68.83
2024-05-09T22:54:58.335Z,68.95
2024-05-09T22:57:28.723Z,69.03
2024-05-09T22:59:58.723Z,69.46
2024-05-09T23:02:28.741Z,69.46
2024-05-09T23:04:59.034Z,68.97
2024-05-09T23:07:28.987Z,69.58
2024-05-09T23:09:58.910Z,69.54
2024-05-09T23:12:28.876Z,69.54
2024-05-09T23:14:59.155Z,68.78
2024-05-09T23:17:28.996Z,68.78
2024-05-09T23:19:58.972Z,69.48
2024-05-09T23:22:28.879Z,69.48
2024-05-09T23:24:59.153Z,70.89
2024-05-09T23:27:29.065Z,70.89
2024-05-09T23:29:59.037Z,70.58
2024-05-09T23:32:29.224Z,69.67
2024-05-09T23:34:59.305Z,71.18
2024-05-09T23:37:29.288Z,71.18
2024-05-09T23:39:59.278Z,72.09
2024-05-09T23:42:29.350Z,72.09
2024-05-09T23:44:59.211Z,71.70
2024-05-09T23:47:28.975Z,71.70
2024-05-09T23:49:59.275Z,72.70
2024-05-09T23:52:29.360Z,72.70
2024-05-09T23:54:59.467Z,72.61
2024-05-09T23:57:29.341Z,72.61
